createdAt,value
2023-01-19T00:00:40.001Z,16.25
2023-01-19T00:03:16.253Z,9.10
2023-01-19T00:05:44.315Z,13.32
2023-01-19T00:08:14.997Z,9.68
2023-01-19T00:10:48.036Z,9.48
2023-01-19T00:13:15.773Z,16.38
2023-01-19T00:15:43.099Z,7.55
2023-01-19T00:18:12.098Z,14.75
2023-01-19T00:20:42.372Z,16.15
2023-01-19T00:23:09.617Z,14.63
2023-01-19T00:25:42.862Z,21.60
2023-01-19T00:28:16.250Z,7.43
2023-01-19T00:30:43.436Z,8.90
2023-01-19T00:33:13.913Z,9.32
2023-01-19T00:35:42.781Z,4.63
2023-01-19T00:38:10.981Z,12.82
2023-01-19T00:40:38.120Z,13.43
2023-01-19T00:43:05.269Z,16.48
2023-01-19T00:45:35.951Z,5.03
2023-01-19T00:48:03.139Z,8.18
2023-01-19T00:50:32.097Z,16.05
2023-01-19T00:53:01.682Z,8.98
2023-01-19T00:55:30.329Z,13.82
2023-01-19T00:57:57.737Z,9.20
2023-01-19T01:00:25.912Z,12.27
2023-01-19T01:02:53.997Z,19.13
2023-01-19T01:05:21.396Z,7.45
2023-01-19T01:07:49.708Z,9.27
2023-01-19T01:10:25.184Z,13.13
2023-01-19T01:13:19.368Z,7.43
2023-01-19T01:15:39.316Z,6.43
2023-01-19T01:18:06.164Z,11.00
2023-01-19T01:20:35.033Z,10.13
2023-01-19T01:23:02.304Z,8.32
2023-01-19T01:25:31.295Z,8.90
2023-01-19T01:27:58.272Z,6.07
2023-01-19T01:30:25.187Z,8.60
2023-01-19T01:32:52.195Z,5.50
2023-01-19T01:35:19.273Z,7.35
2023-01-19T01:37:46.333Z,10.57
2023-01-19T01:40:15.275Z,15.35
2023-01-19T01:42:43.238Z,7.43
2023-01-19T01:45:35.121Z,9.00
2023-01-19T01:48:09.268Z,11.68
2023-01-19T01:51:01.548Z,17.55
2023-01-19T01:53:31.009Z,11.77
2023-01-19T01:55:58.782Z,10.00
2023-01-19T01:58:25.837Z,21.48
2023-01-19T02:01:11.336Z,16.88
2023-01-19T02:03:38.593Z,17.02
2023-01-19T02:06:08.099Z,6.35
2023-01-19T02:09:00.693Z,6.78
2023-01-19T02:11:47.463Z,15.80
2023-01-19T02:14:14.452Z,9.95
2023-01-19T02:16:42.247Z,10.30
2023-01-19T02:19:16.675Z,12.32
2023-01-19T02:21:49.376Z,13.35
2023-01-19T02:24:16.556Z,8.98
2023-01-19T02:26:47.038Z,11.70
2023-01-19T02:29:17.928Z,7.32
2023-01-19T02:31:48.368Z,9.95
2023-01-19T02:34:18.278Z,12.20
2023-01-19T02:37:06.791Z,13.40
2023-01-19T02:39:41.607Z,18.60
2023-01-19T02:44:44.102Z,12.77
2023-01-19T02:47:11.414Z,14.23
2023-01-19T02:49:38.417Z,10.82
2023-01-19T02:52:06.210Z,12.57
2023-01-19T02:54:48.236Z,13.18
2023-01-19T02:57:31.667Z,3.92
2023-01-19T03:00:20.179Z,10.55
2023-01-19T03:02:56.058Z,8.95
2023-01-19T03:06:04.726Z,10.18
2023-01-19T03:08:53.233Z,7.60
2023-01-19T03:11:20.615Z,13.52
2023-01-19T03:14:00.957Z,10.65
2023-01-19T03:16:41.198Z,12.40
2023-01-19T03:19:15.956Z,7.47
2023-01-19T03:21:47.113Z,17.85
2023-01-19T03:24:17.374Z,13.60
2023-01-19T03:26:49.267Z,11.05
2023-01-19T03:29:18.453Z,11.52
2023-01-19T03:31:47.352Z,14.98
2023-01-19T03:34:17.799Z,9.60
2023-01-19T03:36:49.386Z,11.60
2023-01-19T03:39:23.004Z,10.20
2023-01-19T03:41:54.624Z,16.80
2023-01-19T03:44:22.675Z,12.50
2023-01-19T03:46:50.583Z,15.48
2023-01-19T03:49:19.913Z,12.85
2023-01-19T03:51:47.267Z,13.25
2023-01-19T03:54:14.217Z,13.68
2023-01-19T03:56:41.140Z,10.02
2023-01-19T03:59:08.271Z,9.40
2023-01-19T04:01:35.352Z,15.80
2023-01-19T04:04:02.440Z,9.32
2023-01-19T04:06:29.488Z,8.85
2023-01-19T04:08:56.483Z,16.05
2023-01-19T04:11:23.590Z,12.88
2023-01-19T04:13:50.524Z,18.25
2023-01-19T04:16:21.328Z,16.75
2023-01-19T04:18:48.964Z,19.40
2023-01-19T04:21:16.827Z,8.68
2023-01-19T04:23:44.616Z,9.55
2023-01-19T04:26:11.725Z,10.57
2023-01-19T04:28:38.718Z,8.98
2023-01-19T04:31:07.326Z,11.40
2023-01-19T04:33:35.302Z,10.27
2023-01-19T04:36:02.509Z,13.32
2023-01-19T04:38:29.237Z,24.73
2023-01-19T04:40:56.324Z,26.88
2023-01-19T04:43:24.168Z,12.52
2023-01-19T04:45:51.544Z,11.82
2023-01-19T04:48:20.573Z,14.23
2023-01-19T04:50:47.854Z,11.40
2023-01-19T04:53:16.528Z,11.23
2023-01-19T04:55:43.615Z,16.65
2023-01-19T04:58:10.780Z,11.88
2023-01-19T05:00:37.785Z,10.98
2023-01-19T05:03:05.411Z,13.68
2023-01-19T05:05:33.361Z,12.00
2023-01-19T05:08:00.830Z,13.40
2023-01-19T05:10:28.155Z,18.95
2023-01-19T05:12:55.816Z,13.25
2023-01-19T05:15:22.796Z,11.80
2023-01-19T05:17:49.903Z,13.30
2023-01-19T05:20:17.610Z,20.55
2023-01-19T05:22:50.365Z,6.50
2023-01-19T05:25:17.460Z,10.07
2023-01-19T05:27:44.961Z,13.75
2023-01-19T05:30:13.528Z,21.25
2023-01-19T05:32:40.247Z,9.82
2023-01-19T05:35:07.836Z,17.05
2023-01-19T05:37:34.643Z,18.85
2023-01-19T05:40:03.809Z,16.23
2023-01-19T05:42:32.686Z,13.82
2023-01-19T05:44:59.922Z,15.35
2023-01-19T05:47:29.504Z,17.38
2023-01-19T05:49:56.416Z,15.85
2023-01-19T05:52:25.062Z,16.85
2023-01-19T05:54:52.166Z,12.05
2023-01-19T05:57:19.188Z,12.93
2023-01-19T05:59:46.105Z,20.08
2023-01-19T06:02:13.225Z,8.77
2023-01-19T06:04:39.959Z,14.27
2023-01-19T06:07:07.233Z,13.35
2023-01-19T06:09:34.147Z,19.83
2023-01-19T06:12:01.173Z,18.65
2023-01-19T06:14:28.091Z,13.13
2023-01-19T06:16:55.122Z,13.35
2023-01-19T06:19:22.092Z,19.30
2023-01-19T06:21:52.520Z,13.68
2023-01-19T06:24:20.029Z,15.18
2023-01-19T06:26:46.885Z,8.00
2023-01-19T06:29:14.673Z,13.45
2023-01-19T06:31:42.541Z,7.88
2023-01-19T06:34:09.934Z,14.02
2023-01-19T06:36:37.086Z,17.63
2023-01-19T06:39:06.135Z,10.23
2023-01-19T06:41:36.743Z,16.25
2023-01-19T06:44:04.307Z,18.77
2023-01-19T06:46:32.310Z,15.10
2023-01-19T06:48:59.951Z,13.25
2023-01-19T06:51:27.491Z,14.75
2023-01-19T06:53:54.435Z,10.35
2023-01-19T06:56:21.583Z,9.77
2023-01-19T06:58:48.940Z,13.88
2023-01-19T07:01:15.937Z,8.60
2023-01-19T07:03:43.578Z,9.18
2023-01-19T07:06:11.729Z,15.82
2023-01-19T07:08:40.247Z,18.02
2023-01-19T07:11:23.118Z,19.17
2023-01-19T07:13:56.077Z,15.18
2023-01-19T07:16:24.082Z,12.40
2023-01-19T07:18:51.335Z,5.82
2023-01-19T07:21:19.411Z,7.63
2023-01-19T07:23:49.292Z,10.40
2023-01-19T07:26:18.793Z,10.07
2023-01-19T07:28:47.346Z,10.32
2023-01-19T07:31:15.854Z,13.15
2023-01-19T07:33:42.810Z,7.55
2023-01-19T07:36:10.605Z,14.15
2023-01-19T07:38:37.528Z,8.35
2023-01-19T07:41:08.227Z,11.93
2023-01-19T07:43:35.318Z,10.27
2023-01-19T07:46:03.993Z,15.07
2023-01-19T07:48:31.164Z,13.05
2023-01-19T07:51:11.702Z,13.88
2023-01-19T07:53:40.209Z,15.88
2023-01-19T07:56:07.830Z,15.07
2023-01-19T07:58:35.039Z,17.67
2023-01-19T08:01:09.714Z,15.48
2023-01-19T08:03:37.071Z,9.55
2023-01-19T08:06:05.269Z,15.50
2023-01-19T08:08:33.288Z,10.85
2023-01-19T08:11:00.398Z,12.32
2023-01-19T08:13:27.620Z,11.82
2023-01-19T08:15:54.786Z,12.85
2023-01-19T08:18:22.400Z,7.30
2023-01-19T08:20:49.430Z,11.85
2023-01-19T08:23:18.307Z,8.60
2023-01-19T08:25:46.172Z,9.27
2023-01-19T08:28:15.843Z,12.75
2023-01-19T08:30:54.184Z,12.85
2023-01-19T08:33:23.258Z,6.97
2023-01-19T08:35:53.216Z,7.80
2023-01-19T08:38:20.753Z,7.68
2023-01-19T08:40:48.939Z,19.38
2023-01-19T08:43:19.743Z,6.38
2023-01-19T08:45:52.045Z,12.00
2023-01-19T08:48:22.569Z,15.35
2023-01-19T08:50:51.202Z,9.80
2023-01-19T08:53:19.383Z,8.95
2023-01-19T08:55:46.147Z,9.32
2023-01-19T08:58:13.148Z,8.23
2023-01-19T09:00:40.308Z,7.47
2023-01-19T09:03:11.373Z,5.88
2023-01-19T09:05:39.161Z,11.18
2023-01-19T09:08:14.087Z,6.18
2023-01-19T09:10:47.180Z,10.52
2023-01-19T09:13:15.334Z,11.65
2023-01-19T09:15:43.556Z,6.97
2023-01-19T09:18:14.053Z,6.15
2023-01-19T09:20:43.017Z,6.88
2023-01-19T09:23:11.026Z,8.55
2023-01-19T09:25:42.889Z,7.47
2023-01-19T09:28:12.276Z,7.13
2023-01-19T09:30:41.138Z,8.82
2023-01-19T09:33:11.468Z,10.10
2023-01-19T09:35:39.713Z,9.35
2023-01-19T09:38:09.115Z,6.10
2023-01-19T09:40:45.318Z,6.60
2023-01-19T09:43:14.183Z,10.02
2023-01-19T09:45:53.667Z,5.15
2023-01-19T09:48:23.447Z,8.25
2023-01-19T09:50:50.780Z,6.47
2023-01-19T09:53:26.681Z,6.68
2023-01-19T09:55:53.513Z,7.07
2023-01-19T09:58:21.130Z,7.38
2023-01-19T10:01:04.845Z,3.55
2023-01-19T10:03:35.257Z,6.07
2023-01-19T10:06:06.801Z,6.32
2023-01-19T10:08:42.898Z,13.85
2023-01-19T10:11:23.120Z,10.75
2023-01-19T10:13:52.436Z,7.07
2023-01-19T10:16:28.473Z,10.93
2023-01-19T10:19:03.084Z,13.55
2023-01-19T10:21:43.741Z,8.98
2023-01-19T10:24:36.734Z,8.48
2023-01-19T10:27:09.776Z,4.50
2023-01-19T10:29:38.124Z,9.02
2023-01-19T10:32:22.928Z,8.70
2023-01-19T10:34:51.468Z,8.70
2023-01-19T10:37:18.447Z,6.32
2023-01-19T10:39:54.386Z,6.35
2023-01-19T10:42:21.579Z,5.75
2023-01-19T10:44:49.876Z,7.78
2023-01-19T10:47:19.443Z,8.27
2023-01-19T10:49:48.119Z,10.70
2023-01-19T10:52:27.654Z,3.95
2023-01-19T10:54:55.702Z,8.50
2023-01-19T10:57:37.923Z,5.03
2023-01-19T11:00:34.094Z,8.95
2023-01-19T11:03:01.487Z,14.77
2023-01-19T11:05:31.760Z,9.98
2023-01-19T11:07:59.255Z,9.85
2023-01-19T11:10:30.423Z,10.93
2023-01-19T11:13:04.481Z,7.13
2023-01-19T11:16:00.533Z,8.90
2023-01-19T11:18:34.109Z,11.48
2023-01-19T11:21:08.010Z,5.85
2023-01-19T11:23:42.251Z,9.20
2023-01-19T11:26:16.529Z,6.63
2023-01-19T11:28:48.572Z,8.93
2023-01-19T11:31:15.492Z,13.65
2023-01-19T11:33:54.149Z,9.48
2023-01-19T11:36:24.863Z,9.20
2023-01-19T11:38:54.568Z,7.82
2023-01-19T11:41:33.624Z,5.53
2023-01-19T11:44:12.293Z,11.63
2023-01-19T11:46:44.311Z,8.23
2023-01-19T11:49:49.853Z,6.18
2023-01-19T11:52:22.713Z,8.20
2023-01-19T11:55:34.660Z,4.30
2023-01-19T11:58:04.709Z,8.93
2023-01-19T12:00:50.347Z,6.70
2023-01-19T12:03:17.203Z,10.18
2023-01-19T12:05:49.329Z,7.00
2023-01-19T12:08:22.271Z,7.13
2023-01-19T12:10:51.155Z,7.35
2023-01-19T12:13:23.288Z,7.53
2023-01-19T12:15:58.844Z,4.95
2023-01-19T12:18:30.500Z,6.68
2023-01-19T12:20:59.081Z,9.75
2023-01-19T12:23:46.325Z,5.13
2023-01-19T12:26:16.494Z,7.07
2023-01-19T12:28:47.763Z,5.47
2023-01-19T12:31:19.881Z,4.63
2023-01-19T12:33:47.638Z,10.88
2023-01-19T12:36:17.441Z,14.57
2023-01-19T12:39:04.270Z,8.13
2023-01-19T12:41:35.307Z,8.13
2023-01-19T12:44:13.120Z,5.85
2023-01-19T12:46:54.604Z,16.05
2023-01-19T12:49:24.823Z,8.68
2023-01-19T12:51:55.785Z,9.45
2023-01-19T12:54:33.035Z,6.63
2023-01-19T12:57:04.885Z,11.73
2023-01-19T12:59:35.008Z,7.13
2023-01-19T13:02:22.711Z,11.57
2023-01-19T13:05:14.687Z,10.98
2023-01-19T13:08:03.437Z,8.20
2023-01-19T13:11:10.344Z,7.47
2023-01-19T13:13:50.449Z,13.25
2023-01-19T13:16:20.641Z,10.73
2023-01-19T13:18:49.234Z,11.90
2023-01-19T13:21:31.556Z,9.18
2023-01-19T13:24:00.993Z,15.98
2023-01-19T13:26:31.090Z,7.95
2023-01-19T13:29:06.709Z,11.45
2023-01-19T13:31:38.865Z,9.05
2023-01-19T13:34:13.723Z,12.27
2023-01-19T13:39:18.524Z,11.20
2023-01-19T13:41:47.707Z,12.97
2023-01-19T13:44:24.204Z,9.85
2023-01-19T13:46:52.969Z,15.82
2023-01-19T13:49:45.669Z,15.13
2023-01-19T13:52:18.543Z,14.40
2023-01-19T13:54:53.888Z,17.00
2023-01-19T13:57:24.882Z,12.70
2023-01-19T14:00:23.004Z,10.80
2023-01-19T14:03:01.932Z,13.43
2023-01-19T14:05:30.412Z,19.35
2023-01-19T14:08:05.046Z,12.88
2023-01-19T14:10:33.177Z,15.93
2023-01-19T14:13:05.230Z,11.68
2023-01-19T14:15:34.334Z,17.92
2023-01-19T14:18:16.471Z,16.83
2023-01-19T14:20:58.083Z,15.07
2023-01-19T14:23:47.786Z,16.90
2023-01-19T14:26:43.279Z,16.45
2023-01-19T14:29:10.105Z,13.52
2023-01-19T14:31:49.176Z,24.25
2023-01-19T14:34:32.111Z,19.95
2023-01-19T14:36:59.932Z,20.92
2023-01-19T14:39:29.953Z,19.45
2023-01-19T14:42:00.993Z,11.88
2023-01-19T14:44:39.824Z,17.38
2023-01-19T14:47:20.848Z,15.82
2023-01-19T14:49:48.565Z,18.85
2023-01-19T14:52:42.314Z,18.02
2023-01-19T14:55:21.248Z,22.75
2023-01-19T14:57:48.305Z,26.08
2023-01-19T15:00:18.366Z,21.75
2023-01-19T15:02:46.558Z,30.35
2023-01-19T15:05:14.414Z,18.52
2023-01-19T15:07:44.306Z,26.42
2023-01-19T15:10:20.762Z,21.38
2023-01-19T15:12:52.707Z,17.92
2023-01-19T15:15:39.904Z,29.98
2023-01-19T15:18:07.473Z,19.50
2023-01-19T15:20:34.488Z,29.15
2023-01-19T15:23:01.482Z,23.77
2023-01-19T15:25:28.859Z,24.02
2023-01-19T15:27:59.290Z,24.45
2023-01-19T15:30:30.438Z,25.30
2023-01-19T15:32:59.158Z,22.67
2023-01-19T15:35:28.897Z,30.67
2023-01-19T15:37:55.740Z,26.95
2023-01-19T15:40:23.534Z,28.15
2023-01-19T15:42:51.012Z,31.65
2023-01-19T15:45:26.788Z,31.60
2023-01-19T15:47:53.724Z,24.83
2023-01-19T15:50:20.614Z,23.58
2023-01-19T15:52:47.610Z,23.77
2023-01-19T15:55:16.124Z,26.30
2023-01-19T15:57:43.338Z,15.55
2023-01-19T16:00:10.982Z,23.10
2023-01-19T16:02:38.301Z,30.15
2023-01-19T16:05:05.874Z,33.25
2023-01-19T16:07:35.945Z,34.08
2023-01-19T16:10:05.918Z,28.20
2023-01-19T16:12:32.718Z,37.72
2023-01-19T16:14:59.578Z,34.92
2023-01-19T16:17:26.410Z,34.70
2023-01-19T16:19:53.461Z,34.63
2023-01-19T16:22:20.341Z,30.27
2023-01-19T16:24:47.304Z,31.35
2023-01-19T16:27:14.252Z,21.80
2023-01-19T16:29:41.111Z,23.63
2023-01-19T16:32:08.092Z,29.05
2023-01-19T16:34:34.989Z,29.23
2023-01-19T16:37:01.884Z,28.92
2023-01-19T16:39:28.903Z,32.53
2023-01-19T16:41:55.890Z,27.85
2023-01-19T16:44:23.104Z,26.10
2023-01-19T16:46:50.216Z,26.08
2023-01-19T16:49:19.511Z,24.88
2023-01-19T16:51:46.967Z,25.08
2023-01-19T16:54:17.706Z,23.58
2023-01-19T16:56:44.796Z,37.22
2023-01-19T16:59:13.188Z,26.20
2023-01-19T17:01:40.609Z,35.70
2023-01-19T17:04:07.979Z,25.65
2023-01-19T17:06:35.701Z,29.20
2023-01-19T17:09:03.131Z,30.70
2023-01-19T17:11:32.165Z,30.23
2023-01-19T17:14:01.261Z,29.73
2023-01-19T17:16:29.651Z,30.75
2023-01-19T17:18:57.911Z,28.35
2023-01-19T17:21:25.319Z,33.50
2023-01-19T17:23:54.003Z,31.42
2023-01-19T17:26:21.738Z,25.88
2023-01-19T17:28:48.832Z,25.60
2023-01-19T17:31:18.759Z,36.40
2023-01-19T17:33:47.738Z,29.27
2023-01-19T17:36:20.776Z,25.77
2023-01-19T17:38:47.713Z,21.60
2023-01-19T17:41:21.326Z,50.95
2023-01-19T17:43:50.579Z,31.17
2023-01-19T17:46:19.171Z,37.97
2023-01-19T17:48:57.991Z,30.13
2023-01-19T17:51:25.926Z,25.83
2023-01-19T17:53:54.225Z,29.40
2023-01-19T17:56:27.576Z,26.17
2023-01-19T17:58:54.704Z,33.83
2023-01-19T18:01:24.285Z,20.58
2023-01-19T18:03:51.503Z,18.38
2023-01-19T18:06:19.107Z,19.15
2023-01-19T18:08:47.392Z,28.52
2023-01-19T18:11:16.932Z,22.20
2023-01-19T18:13:45.076Z,25.83
2023-01-19T18:16:21.591Z,20.83
2023-01-19T18:18:49.983Z,17.00
2023-01-19T18:21:17.534Z,20.85
2023-01-19T18:23:45.345Z,21.77
2023-01-19T18:26:18.644Z,24.17
2023-01-19T18:28:46.040Z,27.15
2023-01-19T18:31:15.425Z,25.48
2023-01-19T18:33:42.743Z,25.73
2023-01-19T18:36:10.188Z,23.75
2023-01-19T18:38:38.111Z,23.88
2023-01-19T18:41:13.870Z,25.92
2023-01-19T18:43:41.295Z,30.23
2023-01-19T18:46:08.376Z,24.08
2023-01-19T18:48:35.660Z,25.83
2023-01-19T18:51:10.814Z,24.63
2023-01-19T18:53:38.345Z,25.73
2023-01-19T18:56:06.249Z,23.23
2023-01-19T18:58:36.529Z,28.20
2023-01-19T19:01:03.495Z,20.00
2023-01-19T19:03:30.530Z,19.17
2023-01-19T19:06:01.684Z,21.02
2023-01-19T19:08:28.529Z,17.55
2023-01-19T19:10:55.423Z,20.70
2023-01-19T19:13:22.418Z,22.38
2023-01-19T19:15:49.468Z,24.65
2023-01-19T19:18:16.590Z,17.77
2023-01-19T19:20:43.908Z,23.83
2023-01-19T19:23:11.794Z,26.80
2023-01-19T19:25:38.862Z,28.85
2023-01-19T19:28:06.019Z,17.88
2023-01-19T19:30:34.751Z,25.63
2023-01-19T19:33:01.883Z,40.28
2023-01-19T19:35:29.159Z,32.38
2023-01-19T19:37:57.918Z,34.17
2023-01-19T19:40:26.397Z,34.42
2023-01-19T19:42:53.561Z,31.10
2023-01-19T19:45:20.626Z,28.90
2023-01-19T19:47:47.548Z,28.98
2023-01-19T19:50:14.668Z,31.08
2023-01-19T19:52:42.530Z,28.92
2023-01-19T19:55:11.036Z,27.75
2023-01-19T19:57:38.143Z,31.52
2023-01-19T20:00:06.001Z,27.98
2023-01-19T20:02:32.836Z,25.25
2023-01-19T20:04:59.862Z,30.50
2023-01-19T20:07:26.928Z,31.38
2023-01-19T20:09:55.255Z,25.13
2023-01-19T20:12:22.599Z,32.03
2023-01-19T20:14:50.071Z,27.90
2023-01-19T20:17:28.785Z,31.52
2023-01-19T20:19:55.865Z,31.20
2023-01-19T20:22:22.704Z,26.63
2023-01-19T20:24:51.498Z,22.08
2023-01-19T20:27:18.580Z,26.55
2023-01-19T20:29:51.554Z,24.77
2023-01-19T20:32:19.089Z,21.52
2023-01-19T20:34:46.000Z,27.63
2023-01-19T20:37:12.732Z,23.48
2023-01-19T20:39:39.527Z,24.20
2023-01-19T20:42:09.849Z,22.88
2023-01-19T20:44:37.184Z,20.35
2023-01-19T20:47:06.550Z,29.75
2023-01-19T20:49:33.663Z,24.50
2023-01-19T20:52:00.591Z,17.88
2023-01-19T20:54:30.346Z,24.58
2023-01-19T20:56:57.828Z,24.05
2023-01-19T20:59:24.830Z,20.25
2023-01-19T21:01:52.207Z,20.92
2023-01-19T21:04:19.267Z,37.40
2023-01-19T21:06:46.309Z,22.75
2023-01-19T21:09:13.127Z,24.27
2023-01-19T21:11:40.338Z,20.85
2023-01-19T21:14:07.833Z,20.35
2023-01-19T21:16:35.936Z,28.42
2023-01-19T21:19:04.628Z,24.00
2023-01-19T21:21:32.197Z,18.42
2023-01-19T21:24:01.498Z,20.08
2023-01-19T21:26:31.607Z,17.75
2023-01-19T21:29:00.019Z,22.55
2023-01-19T21:31:28.441Z,17.05
2023-01-19T21:33:56.192Z,24.90
2023-01-19T21:36:23.983Z,18.00
2023-01-19T21:39:00.481Z,24.55
2023-01-19T21:41:30.089Z,18.67
2023-01-19T21:43:57.168Z,17.90
2023-01-19T21:46:33.216Z,17.20
2023-01-19T21:49:02.515Z,15.25
2023-01-19T21:51:33.693Z,19.13
2023-01-19T21:54:01.605Z,23.02
2023-01-19T21:56:29.770Z,23.67
2023-01-19T21:58:57.851Z,16.90
2023-01-19T22:01:25.133Z,23.15
2023-01-19T22:03:56.812Z,16.58
2023-01-19T22:06:25.795Z,17.55
2023-01-19T22:08:53.308Z,15.18
2023-01-19T22:11:22.078Z,19.08
2023-01-19T22:13:48.956Z,21.25
2023-01-19T22:16:19.932Z,18.42
2023-01-19T22:18:54.224Z,17.73
2023-01-19T22:21:24.100Z,16.20
2023-01-19T22:23:52.925Z,15.60
2023-01-19T22:26:20.312Z,19.48
2023-01-19T22:28:47.298Z,19.45
2023-01-19T22:31:16.533Z,18.17
2023-01-19T22:33:44.575Z,19.65
2023-01-19T22:36:21.877Z,27.27
2023-01-19T22:38:53.219Z,15.35
2023-01-19T22:41:26.028Z,14.40
2023-01-19T22:43:56.092Z,18.00
2023-01-19T22:46:25.486Z,20.33
2023-01-19T22:48:53.192Z,17.33
2023-01-19T22:51:21.466Z,13.73
2023-01-19T22:53:48.790Z,14.50
2023-01-19T22:56:21.428Z,20.33
2023-01-19T22:58:48.650Z,16.13
2023-01-19T23:01:25.674Z,13.68
2023-01-19T23:03:53.913Z,13.75
2023-01-19T23:06:33.283Z,13.55
2023-01-19T23:09:02.448Z,15.60
2023-01-19T23:11:35.711Z,16.25
2023-01-19T23:14:04.198Z,18.05
2023-01-19T23:16:31.000Z,16.05
2023-01-19T23:18:58.431Z,16.85
2023-01-19T23:21:27.977Z,14.25
2023-01-19T23:23:56.355Z,16.13
2023-01-19T23:26:24.707Z,16.08
2023-01-19T23:29:00.990Z,17.02
2023-01-19T23:31:32.152Z,15.35
2023-01-19T23:34:04.176Z,13.93
2023-01-19T23:36:34.099Z,28.88
2023-01-19T23:39:04.398Z,13.05
2023-01-19T23:41:34.754Z,13.65
2023-01-19T23:44:01.770Z,10.68
2023-01-19T23:46:29.166Z,23.90
2023-01-19T23:48:56.138Z,13.18
2023-01-19T23:51:28.672Z,11.85
2023-01-19T23:53:57.197Z,14.63
2023-01-19T23:56:26.461Z,15.63
2023-01-19T23:58:56.843Z,18.88
